createdAt,value
2023-04-10T00:02:13.347Z,6.93
2023-04-10T00:04:42.947Z,11.93
2023-04-10T00:07:10.949Z,8.73
2023-04-10T00:09:38.878Z,8.40
2023-04-10T00:12:07.393Z,7.43
2023-04-10T00:14:35.365Z,8.60
2023-04-10T00:17:03.340Z,8.00
2023-04-10T00:19:31.297Z,6.67
2023-04-10T00:22:00.603Z,6.80
2023-04-10T00:24:28.657Z,7.83
2023-04-10T00:26:57.455Z,6.90
2023-04-10T00:29:25.677Z,7.67
2023-04-10T00:31:53.617Z,9.93
2023-04-10T00:34:21.678Z,6.23
2023-04-10T00:36:49.638Z,7.03
2023-04-10T00:39:18.960Z,9.70
2023-04-10T00:41:46.920Z,6.73
2023-04-10T00:44:14.844Z,7.90
2023-04-10T00:46:42.898Z,7.20
2023-04-10T00:49:11.102Z,6.07
2023-04-10T00:51:39.076Z,6.87
2023-04-10T00:54:07.206Z,7.53
2023-04-10T00:56:36.595Z,6.80
2023-04-10T00:59:07.071Z,7.47
2023-04-10T01:01:35.477Z,8.13
2023-04-10T01:04:04.108Z,8.07
2023-04-10T01:06:50.780Z,6.60
2023-04-10T01:09:26.111Z,7.53
2023-04-10T01:12:02.159Z,7.53
2023-04-10T01:14:43.589Z,6.87
2023-04-10T01:17:18.930Z,8.17
2023-04-10T01:20:02.150Z,8.70
2023-04-10T01:22:36.741Z,8.23
2023-04-10T01:25:40.777Z,8.47
2023-04-10T01:28:25.805Z,9.03
2023-04-10T01:31:00.567Z,8.47
2023-04-10T01:33:33.913Z,7.53
2023-04-10T01:36:06.332Z,7.73
2023-04-10T01:38:35.197Z,9.40
2023-04-10T01:41:04.408Z,7.70
2023-04-10T01:43:34.428Z,8.30
2023-04-10T01:46:04.965Z,8.57
2023-04-10T01:48:32.935Z,9.77
2023-04-10T01:51:04.825Z,10.47
2023-04-10T01:53:33.002Z,8.87
2023-04-10T01:56:02.908Z,9.27
2023-04-10T01:58:31.653Z,8.10
2023-04-10T02:00:59.588Z,7.80
2023-04-10T02:03:29.151Z,8.50
2023-04-10T02:06:07.929Z,10.50
2023-04-10T02:08:40.688Z,10.27
2023-04-10T02:11:16.362Z,9.63
2023-04-10T02:13:44.900Z,8.13
2023-04-10T02:16:17.355Z,8.07
2023-04-10T02:18:48.344Z,7.20
2023-04-10T02:21:17.361Z,8.17
2023-04-10T02:23:45.668Z,8.77
2023-04-10T02:26:13.607Z,9.30
2023-04-10T02:28:41.486Z,9.33
2023-04-10T02:31:09.448Z,7.47
2023-04-10T02:33:37.407Z,8.53
2023-04-10T02:36:07.758Z,6.33
2023-04-10T02:38:35.745Z,7.70
2023-04-10T02:41:03.654Z,10.80
2023-04-10T02:43:31.501Z,8.60
2023-04-10T02:45:59.934Z,8.60
2023-04-10T02:48:27.857Z,8.63
2023-04-10T02:50:58.196Z,7.27
2023-04-10T02:53:27.452Z,6.60
2023-04-10T02:55:55.570Z,7.27
2023-04-10T02:58:23.463Z,8.67
2023-04-10T03:00:52.606Z,8.17
2023-04-10T03:03:21.213Z,7.63
2023-04-10T03:05:49.508Z,7.10
2023-04-10T03:08:17.667Z,7.67
2023-04-10T03:10:48.598Z,7.80
2023-04-10T03:13:16.784Z,7.70
2023-04-10T03:15:44.720Z,8.40
2023-04-10T03:18:12.705Z,7.83
2023-04-10T03:20:41.341Z,7.10
2023-04-10T03:23:11.702Z,8.80
2023-04-10T03:25:39.676Z,8.60
2023-04-10T03:28:08.938Z,6.93
2023-04-10T03:30:37.200Z,8.07
2023-04-10T03:33:05.314Z,9.67
2023-04-10T03:35:33.224Z,8.60
2023-04-10T03:38:01.165Z,8.73
2023-04-10T03:40:29.081Z,7.20
2023-04-10T03:42:57.026Z,7.67
2023-04-10T03:45:26.256Z,7.00
2023-04-10T03:47:54.130Z,6.90
2023-04-10T03:50:22.249Z,7.10
2023-04-10T03:52:50.577Z,8.13
2023-04-10T03:55:18.955Z,8.43
2023-04-10T03:57:47.155Z,7.87
2023-04-10T04:00:16.212Z,8.60
2023-04-10T04:02:45.829Z,7.97
2023-04-10T04:05:14.093Z,7.87
2023-04-10T04:07:42.029Z,7.50
2023-04-10T04:10:10.226Z,7.93
2023-04-10T04:12:38.130Z,7.20
2023-04-10T04:15:06.836Z,7.40
2023-04-10T04:17:34.968Z,8.00
2023-04-10T04:20:04.376Z,7.60
2023-04-10T04:22:32.201Z,9.90
2023-04-10T04:25:00.051Z,7.90
2023-04-10T04:27:27.983Z,7.40
2023-04-10T04:29:55.848Z,7.93
2023-04-10T04:32:23.799Z,7.87
2023-04-10T04:34:51.685Z,9.27
2023-04-10T04:37:20.970Z,8.53
2023-04-10T04:39:48.979Z,8.00
2023-04-10T04:42:19.165Z,8.00
2023-04-10T04:44:47.122Z,7.13
2023-04-10T04:47:15.010Z,6.93
2023-04-10T04:49:42.946Z,7.03
2023-04-10T04:52:10.904Z,7.50
2023-04-10T04:54:40.428Z,7.47
2023-04-10T04:57:08.654Z,8.07
2023-04-10T04:59:38.135Z,7.70
2023-04-10T05:02:06.598Z,9.80
2023-04-10T05:04:35.014Z,8.33
2023-04-10T05:07:02.951Z,8.00
2023-04-10T05:09:30.899Z,7.97
2023-04-10T05:12:00.296Z,7.80
2023-04-10T05:14:28.292Z,10.33
2023-04-10T05:16:56.252Z,9.07
2023-04-10T05:19:24.220Z,8.10
2023-04-10T05:21:52.294Z,9.40
2023-04-10T05:24:20.236Z,8.70
2023-04-10T05:26:48.288Z,6.67
2023-04-10T05:29:17.586Z,8.50
2023-04-10T05:31:45.540Z,7.40
2023-04-10T05:34:13.398Z,8.73
2023-04-10T05:36:41.356Z,7.07
2023-04-10T05:39:09.278Z,9.13
2023-04-10T05:41:37.228Z,9.10
2023-04-10T05:44:05.079Z,9.90
2023-04-10T05:46:34.408Z,8.50
2023-04-10T05:49:02.885Z,11.47
2023-04-10T05:51:30.877Z,7.77
2023-04-10T05:53:58.768Z,8.83
2023-04-10T05:56:26.582Z,7.97
2023-04-10T05:58:54.714Z,8.27
2023-04-10T06:01:22.768Z,10.10
2023-04-10T06:03:52.124Z,6.97
2023-04-10T06:06:21.730Z,6.67
2023-04-10T06:08:49.905Z,7.27
2023-04-10T06:11:17.872Z,7.40
2023-04-10T06:13:45.753Z,8.87
2023-04-10T06:16:15.104Z,7.97
2023-04-10T06:18:43.510Z,8.10
2023-04-10T06:21:12.813Z,8.17
2023-04-10T06:23:40.859Z,10.33
2023-04-10T06:26:08.790Z,7.53
2023-04-10T06:28:36.973Z,7.40
2023-04-10T06:31:07.928Z,8.97
2023-04-10T06:33:36.666Z,8.37
2023-04-10T06:36:05.511Z,6.97
2023-04-10T06:38:37.746Z,7.97
2023-04-10T06:41:06.684Z,8.87
2023-04-10T06:43:35.299Z,6.50
2023-04-10T06:46:04.868Z,6.43
2023-04-10T06:48:32.843Z,7.67
2023-04-10T06:51:01.614Z,8.17
2023-04-10T06:53:29.646Z,8.17
2023-04-10T06:56:00.921Z,7.90
2023-04-10T06:58:31.421Z,7.70
2023-04-10T07:01:04.254Z,7.17
2023-04-10T07:03:32.701Z,7.97
2023-04-10T07:06:01.959Z,8.17
2023-04-10T07:08:29.971Z,8.00
2023-04-10T07:10:59.198Z,8.40
2023-04-10T07:13:27.105Z,7.63
2023-04-10T07:15:55.059Z,7.30
2023-04-10T07:18:22.959Z,9.67
2023-04-10T07:20:52.522Z,8.67
2023-04-10T07:23:20.671Z,6.83
2023-04-10T07:25:48.546Z,8.43
2023-04-10T07:28:17.826Z,6.77
2023-04-10T07:30:46.096Z,7.93
2023-04-10T07:33:14.291Z,6.90
2023-04-10T07:35:42.451Z,7.40
2023-04-10T07:38:10.403Z,6.93
2023-04-10T07:40:38.268Z,6.63
2023-04-10T07:43:06.138Z,7.57
2023-04-10T07:45:35.522Z,8.40
2023-04-10T07:48:03.564Z,6.70
2023-04-10T07:50:31.916Z,9.10
2023-04-10T07:53:03.499Z,6.33
2023-04-10T07:55:31.371Z,7.57
2023-04-10T07:57:59.221Z,6.87
2023-04-10T08:00:27.089Z,5.67
2023-04-10T08:02:56.755Z,7.23
2023-04-10T08:05:25.576Z,5.50
2023-04-10T08:07:53.482Z,6.53
2023-04-10T08:10:21.469Z,6.10
2023-04-10T08:12:49.321Z,6.53
2023-04-10T08:15:18.563Z,5.40
2023-04-10T08:17:46.479Z,6.70
2023-04-10T08:20:16.276Z,5.43
2023-04-10T08:22:44.171Z,5.87
2023-04-10T08:25:12.043Z,5.90
2023-04-10T08:27:39.922Z,7.03
2023-04-10T08:30:08.971Z,4.77
2023-04-10T08:32:37.232Z,8.37
2023-04-10T08:35:05.779Z,5.50
2023-04-10T08:37:35.044Z,5.93
2023-04-10T08:40:03.207Z,5.67
2023-04-10T08:42:33.870Z,5.77
2023-04-10T08:45:02.538Z,4.37
2023-04-10T08:47:35.219Z,5.63
2023-04-10T08:50:07.782Z,5.73
2023-04-10T08:52:39.106Z,5.37
2023-04-10T08:55:09.998Z,5.87
2023-04-10T08:57:42.840Z,4.83
2023-04-10T09:00:23.127Z,4.67
2023-04-10T09:02:55.270Z,4.90
2023-04-10T09:05:24.032Z,3.67
2023-04-10T09:07:53.577Z,5.00
2023-04-10T09:10:21.594Z,4.40
2023-04-10T09:12:50.291Z,4.97
2023-04-10T09:15:18.230Z,4.37
2023-04-10T09:18:07.054Z,3.67
2023-04-10T09:20:34.952Z,3.27
2023-04-10T09:23:21.391Z,4.63
2023-04-10T09:25:50.766Z,4.77
2023-04-10T09:28:19.161Z,4.43
2023-04-10T09:30:47.171Z,4.00
2023-04-10T09:33:24.226Z,4.10
2023-04-10T09:35:52.222Z,4.03
2023-04-10T09:38:22.699Z,4.60
2023-04-10T09:40:52.345Z,4.13
2023-04-10T09:43:24.379Z,4.03
2023-04-10T09:45:53.597Z,3.57
2023-04-10T09:48:22.862Z,4.50
2023-04-10T09:50:51.438Z,4.13
2023-04-10T09:53:22.015Z,4.03
2023-04-10T09:55:50.801Z,3.60
2023-04-10T09:58:19.034Z,4.43
2023-04-10T10:00:48.065Z,4.20
2023-04-10T10:03:17.361Z,3.83
2023-04-10T10:05:47.312Z,3.50
2023-04-10T10:08:16.771Z,3.63
2023-04-10T10:10:49.208Z,3.50
2023-04-10T10:13:22.493Z,3.50
2023-04-10T10:15:58.059Z,3.87
2023-04-10T10:18:33.586Z,3.57
2023-04-10T10:21:03.639Z,3.73
2023-04-10T10:23:34.195Z,3.53
2023-04-10T10:26:06.870Z,3.50
2023-04-10T10:28:36.721Z,3.43
2023-04-10T10:31:05.254Z,3.13
2023-04-10T10:33:36.521Z,3.50
2023-04-10T10:36:05.576Z,3.43
2023-04-10T10:38:34.462Z,3.37
2023-04-10T10:41:11.712Z,3.13
2023-04-10T10:43:49.552Z,3.53
2023-04-10T10:46:24.312Z,3.90
2023-04-10T10:48:58.866Z,3.30
2023-04-10T10:51:44.431Z,3.30
2023-04-10T10:54:31.983Z,3.23
2023-04-10T10:57:01.985Z,3.07
2023-04-10T10:59:57.991Z,2.77
2023-04-10T11:02:26.176Z,3.10
2023-04-10T11:04:54.282Z,3.30
2023-04-10T11:07:22.208Z,3.10
2023-04-10T11:09:57.076Z,3.10
2023-04-10T11:12:26.748Z,2.80
2023-04-10T11:14:59.668Z,3.63
2023-04-10T11:17:49.778Z,3.60
2023-04-10T11:20:17.913Z,3.77
2023-04-10T11:23:08.220Z,2.97
2023-04-10T11:25:52.832Z,2.97
2023-04-10T11:28:38.539Z,2.73
2023-04-10T11:31:20.893Z,2.57
2023-04-10T11:33:49.636Z,2.90
2023-04-10T11:36:18.621Z,2.73
2023-04-10T11:38:59.472Z,2.57
2023-04-10T11:41:32.016Z,2.30
2023-04-10T11:44:02.476Z,2.70
2023-04-10T11:46:31.265Z,2.73
2023-04-10T11:49:02.353Z,2.37
2023-04-10T11:51:31.651Z,2.50
2023-04-10T11:54:07.045Z,2.03
2023-04-10T11:56:35.404Z,2.47
2023-04-10T11:59:07.749Z,2.53
2023-04-10T12:01:35.835Z,2.53
2023-04-10T12:04:04.021Z,2.30
2023-04-10T12:06:32.998Z,3.17
2023-04-10T12:09:01.040Z,2.10
2023-04-10T12:11:29.672Z,2.37
2023-04-10T12:13:58.861Z,2.27
2023-04-10T12:16:29.031Z,3.07
2023-04-10T12:18:57.520Z,1.70
2023-04-10T12:21:26.244Z,2.00
2023-04-10T12:23:54.169Z,1.97
2023-04-10T12:26:22.373Z,2.83
2023-04-10T12:28:54.957Z,1.53
2023-04-10T12:31:32.032Z,1.80
2023-04-10T12:34:01.272Z,1.70
2023-04-10T12:36:30.865Z,1.77
2023-04-10T12:38:59.428Z,1.73
2023-04-10T12:41:29.628Z,1.77
2023-04-10T12:44:09.019Z,1.73
2023-04-10T12:46:38.856Z,1.60
2023-04-10T12:49:12.093Z,1.77
2023-04-10T12:51:47.115Z,2.17
2023-04-10T12:54:29.307Z,1.70
2023-04-10T12:56:57.726Z,2.00
2023-04-10T12:59:26.543Z,1.43
2023-04-10T13:01:56.023Z,1.80
2023-04-10T13:04:24.877Z,1.70
2023-04-10T13:06:53.619Z,2.20
2023-04-10T13:09:21.807Z,1.83
2023-04-10T13:11:51.694Z,1.70
2023-04-10T13:14:19.923Z,1.97
2023-04-10T13:16:47.828Z,1.90
2023-04-10T13:19:17.078Z,10.40
2023-04-10T13:21:45.032Z,1.83
2023-04-10T13:24:14.184Z,1.73
2023-04-10T13:26:44.001Z,2.00
2023-04-10T13:29:11.960Z,1.67
2023-04-10T13:31:39.988Z,1.60
2023-04-10T13:34:07.907Z,2.07
2023-04-10T13:36:37.250Z,2.40
2023-04-10T13:39:05.758Z,1.50
2023-04-10T13:41:33.853Z,1.80
2023-04-10T13:44:01.812Z,2.30
2023-04-10T13:46:29.695Z,1.47
2023-04-10T13:48:58.489Z,1.60
2023-04-10T13:51:26.636Z,1.60
2023-04-10T13:53:56.047Z,1.63
2023-04-10T13:56:23.976Z,1.43
2023-04-10T13:58:51.920Z,1.83
2023-04-10T14:01:19.858Z,1.83
2023-04-10T14:03:47.932Z,1.70
2023-04-10T14:06:16.229Z,1.67
2023-04-10T14:08:44.090Z,1.70
2023-04-10T14:11:13.410Z,1.93
2023-04-10T14:13:41.317Z,1.40
2023-04-10T14:16:09.753Z,1.30
2023-04-10T14:18:37.758Z,1.10
2023-04-10T14:21:05.976Z,1.47
2023-04-10T14:23:33.867Z,1.40
2023-04-10T14:26:01.860Z,1.30
2023-04-10T14:28:31.558Z,1.50
2023-04-10T14:30:59.518Z,2.60
2023-04-10T14:33:27.477Z,1.53
2023-04-10T14:35:55.720Z,1.47
2023-04-10T14:38:23.731Z,1.47
2023-04-10T14:40:51.916Z,1.40
2023-04-10T14:43:19.879Z,1.37
2023-04-10T14:45:49.317Z,1.30
2023-04-10T14:48:19.840Z,1.80
2023-04-10T14:50:48.285Z,4.17
2023-04-10T14:53:16.491Z,5.80
2023-04-10T14:55:44.467Z,1.20
2023-04-10T14:58:12.440Z,1.80
2023-04-10T15:00:40.592Z,1.50
2023-04-10T15:03:10.043Z,1.60
2023-04-10T15:05:38.105Z,1.77
2023-04-10T15:08:06.125Z,1.50
2023-04-10T15:10:34.058Z,3.57
2023-04-10T15:13:02.031Z,1.60
2023-04-10T15:15:29.903Z,1.87
2023-04-10T15:17:57.889Z,1.03
2023-04-10T15:20:27.233Z,2.27
2023-04-10T15:22:55.163Z,1.70
2023-04-10T15:25:23.071Z,1.87
2023-04-10T15:27:51.004Z,1.50
2023-04-10T15:30:19.223Z,1.70
2023-04-10T15:32:47.164Z,1.83
2023-04-10T15:35:15.221Z,1.63
2023-04-10T15:37:44.512Z,2.57
2023-04-10T15:40:12.835Z,1.53
2023-04-10T15:42:40.699Z,1.50
2023-04-10T15:45:08.883Z,1.53
2023-04-10T15:47:36.930Z,1.77
2023-04-10T15:50:05.666Z,1.47
2023-04-10T15:52:33.861Z,1.37
2023-04-10T15:55:03.156Z,1.80
2023-04-10T15:57:31.032Z,1.80
2023-04-10T16:00:00.641Z,1.57
2023-04-10T16:02:28.906Z,2.17
2023-04-10T16:04:57.052Z,2.13
2023-04-10T16:07:25.059Z,1.70
2023-04-10T16:09:55.028Z,1.77
2023-04-10T16:12:24.268Z,1.90
2023-04-10T16:14:52.159Z,1.50
2023-04-10T16:17:20.115Z,1.70
2023-04-10T16:19:48.110Z,1.70
2023-04-10T16:22:15.973Z,1.90
2023-04-10T16:24:43.845Z,2.30
2023-04-10T16:27:11.746Z,1.93
2023-04-10T16:29:41.030Z,1.90
2023-04-10T16:32:09.062Z,1.90
2023-04-10T16:34:37.028Z,2.00
2023-04-10T16:37:05.023Z,1.80
2023-04-10T16:39:32.958Z,1.90
2023-04-10T16:42:01.343Z,1.80
2023-04-10T16:44:29.318Z,2.00
2023-04-10T16:46:58.617Z,2.20
2023-04-10T16:49:26.737Z,1.80
2023-04-10T16:51:54.663Z,1.97
2023-04-10T16:54:22.601Z,1.93
2023-04-10T16:56:50.551Z,1.97
2023-04-10T16:59:18.572Z,2.17
2023-04-10T17:01:46.439Z,3.07
2023-04-10T17:04:18.033Z,1.53
2023-04-10T17:06:46.036Z,1.80
2023-04-10T17:09:14.090Z,1.90
2023-04-10T17:11:42.098Z,1.90
2023-04-10T17:14:10.550Z,1.80
2023-04-10T17:16:38.805Z,1.90
2023-04-10T17:19:06.893Z,1.73
2023-04-10T17:21:36.375Z,1.83
2023-04-10T17:24:04.512Z,1.63
2023-04-10T17:26:32.773Z,2.20
2023-04-10T17:29:01.190Z,2.63
2023-04-10T17:31:31.249Z,1.50
2023-04-10T17:33:59.300Z,2.00
2023-04-10T17:36:27.916Z,1.80
2023-04-10T17:38:57.638Z,1.67
2023-04-10T17:41:25.933Z,5.87
2023-04-10T17:43:54.099Z,1.83
2023-04-10T17:46:22.385Z,2.93
2023-04-10T17:48:50.418Z,2.00
2023-04-10T17:51:18.673Z,1.67
2023-04-10T17:53:47.264Z,2.47
2023-04-10T17:56:22.408Z,2.23
2023-04-10T17:58:50.477Z,2.53
2023-04-10T18:01:26.072Z,1.60
2023-04-10T18:03:54.186Z,1.97
2023-04-10T18:06:22.153Z,2.20
2023-04-10T18:08:50.617Z,2.30
2023-04-10T18:11:18.956Z,1.70
2023-04-10T18:13:48.980Z,1.97
2023-04-10T18:16:17.532Z,1.93
2023-04-10T18:18:45.658Z,1.90
2023-04-10T18:21:14.581Z,1.53
2023-04-10T18:23:44.401Z,1.60
2023-04-10T18:26:13.050Z,2.53
2023-04-10T18:28:42.001Z,1.80
2023-04-10T18:31:14.656Z,1.77
2023-04-10T18:33:43.431Z,1.73
2023-04-10T18:36:13.947Z,1.40
2023-04-10T18:38:42.932Z,1.33
2023-04-10T18:41:11.300Z,2.40
2023-04-10T18:43:39.592Z,2.73
2023-04-10T18:46:08.142Z,1.40
2023-04-10T18:48:42.145Z,1.30
2023-04-10T18:51:11.113Z,1.37
2023-04-10T18:53:39.844Z,2.03
2023-04-10T18:56:08.156Z,1.30
2023-04-10T18:58:36.622Z,3.03
2023-04-10T19:01:04.637Z,1.97
2023-04-10T19:03:32.673Z,1.37
2023-04-10T19:06:02.406Z,1.57
2023-04-10T19:08:30.410Z,1.70
2023-04-10T19:10:58.298Z,3.33
2023-04-10T19:13:26.318Z,2.07
2023-04-10T19:15:54.245Z,1.33
2023-04-10T19:18:22.196Z,1.97
2023-04-10T19:20:52.960Z,1.67
2023-04-10T19:23:23.053Z,1.63
2023-04-10T19:25:53.257Z,1.57
2023-04-10T19:28:21.418Z,1.37
2023-04-10T19:30:49.510Z,1.70
2023-04-10T19:33:17.984Z,2.83
2023-04-10T19:35:46.062Z,1.53
2023-04-10T19:38:14.024Z,1.80
2023-04-10T19:40:44.403Z,3.37
2023-04-10T19:43:12.435Z,1.70
2023-04-10T19:45:40.746Z,3.10
2023-04-10T19:48:09.687Z,2.10
2023-04-10T19:50:37.629Z,1.60
2023-04-10T19:53:05.726Z,1.67
2023-04-10T19:55:34.265Z,3.70
2023-04-10T19:58:03.600Z,1.43
2023-04-10T20:00:31.516Z,4.33
2023-04-10T20:02:59.663Z,1.70
2023-04-10T20:05:27.904Z,1.30
2023-04-10T20:07:55.903Z,1.77
2023-04-10T20:10:24.097Z,3.63
2023-04-10T20:12:52.052Z,2.50
2023-04-10T20:15:21.534Z,1.83
2023-04-10T20:17:49.567Z,2.27
2023-04-10T20:20:17.871Z,1.80
2023-04-10T20:22:45.737Z,2.30
2023-04-10T20:25:13.721Z,1.87
2023-04-10T20:27:41.598Z,3.33
2023-04-10T20:30:10.857Z,1.77
2023-04-10T20:32:40.204Z,3.53
2023-04-10T20:35:09.193Z,4.80
2023-04-10T20:37:37.091Z,3.07
2023-04-10T20:40:05.636Z,3.63
2023-04-10T20:42:33.592Z,3.07
2023-04-10T20:45:01.619Z,1.80
2023-04-10T20:47:30.069Z,2.33
2023-04-10T20:49:59.337Z,1.50
2023-04-10T20:52:27.308Z,2.83
2023-04-10T20:54:55.240Z,1.70
2023-04-10T20:57:23.800Z,1.83
2023-04-10T20:59:51.842Z,1.43
2023-04-10T21:02:19.868Z,1.63
2023-04-10T21:04:48.145Z,1.00
2023-04-10T21:07:17.505Z,2.73
2023-04-10T21:09:45.688Z,1.73
2023-04-10T21:12:13.600Z,1.97
2023-04-10T21:14:41.527Z,1.50
2023-04-10T21:17:09.464Z,4.57
2023-04-10T21:19:37.365Z,3.03
2023-04-10T21:22:05.458Z,1.70
2023-04-10T21:24:34.728Z,3.37
2023-04-10T21:27:02.620Z,1.77
2023-04-10T21:29:30.609Z,3.13
2023-04-10T21:31:58.541Z,3.10
2023-04-10T21:34:26.514Z,2.03
2023-04-10T21:36:54.981Z,0.90
2023-04-10T21:39:22.942Z,2.47
2023-04-10T21:41:52.160Z,2.83
2023-04-10T21:44:20.117Z,1.23
2023-04-10T21:46:48.177Z,2.50
2023-04-10T21:49:16.084Z,1.13
2023-04-10T21:51:43.969Z,2.23
2023-04-10T21:54:11.939Z,1.07
2023-04-10T21:56:41.332Z,3.27
2023-04-10T21:59:10.926Z,2.70
2023-04-10T22:01:41.429Z,1.33
2023-04-10T22:04:09.595Z,1.67
2023-04-10T22:06:37.511Z,4.83
2023-04-10T22:09:05.681Z,1.40
2023-04-10T22:11:34.235Z,1.57
2023-04-10T22:14:09.076Z,3.83
2023-04-10T22:16:44.711Z,2.30
2023-04-10T22:19:12.658Z,1.93
2023-04-10T22:21:40.609Z,1.57
2023-04-10T22:24:08.975Z,2.00
2023-04-10T22:26:36.847Z,3.57
2023-04-10T22:29:05.154Z,2.80
2023-04-10T22:31:33.207Z,1.80
2023-04-10T22:34:02.515Z,1.33
2023-04-10T22:36:33.403Z,1.27
2023-04-10T22:39:01.337Z,0.70
2023-04-10T22:41:29.375Z,0.77
2023-04-10T22:43:57.379Z,1.13
2023-04-10T22:46:25.472Z,1.23
2023-04-10T22:48:54.208Z,0.50
2023-04-10T22:51:23.685Z,1.40
2023-04-10T22:53:51.559Z,2.63
2023-04-10T22:56:23.127Z,0.93
2023-04-10T22:58:51.035Z,2.10
2023-04-10T23:01:18.988Z,1.43
2023-04-10T23:03:47.152Z,3.03
2023-04-10T23:06:15.068Z,0.70
2023-04-10T23:08:44.330Z,2.20
2023-04-10T23:11:12.233Z,1.53
2023-04-10T23:13:40.128Z,0.57
2023-04-10T23:16:08.982Z,1.53
2023-04-10T23:18:37.674Z,1.73
2023-04-10T23:21:07.334Z,1.70
2023-04-10T23:23:35.254Z,1.07
2023-04-10T23:26:04.532Z,0.70
2023-04-10T23:28:32.403Z,0.53
2023-04-10T23:31:00.324Z,1.77
2023-04-10T23:33:28.189Z,2.93
2023-04-10T23:35:56.111Z,1.50
2023-04-10T23:38:24.147Z,2.03
2023-04-10T23:40:52.090Z,0.60
2023-04-10T23:43:21.326Z,1.10
2023-04-10T23:45:49.303Z,2.23
2023-04-10T23:48:17.224Z,2.53
2023-04-10T23:50:45.214Z,2.37
2023-04-10T23:53:14.570Z,1.03
2023-04-10T23:55:43.193Z,1.80
2023-04-10T23:58:11.133Z,2.20
